sensor_id;sensor_type;location;lat;lon;timestamp;pressure;altitude;pressure_sealevel;temperature;humidity
39954;BME280;25631;51.516;-0.470;2023-04-06T00:01:08;101285.82;;;8.25;45.36
39954;BME280;25631;51.516;-0.470;2023-04-06T00:03:45;101281.04;;;8.51;45.44
39954;BME280;25631;51.516;-0.470;2023-04-06T00:06:21;101276.94;;;8.32;45.53
39954;BME280;25631;51.516;-0.470;2023-04-06T00:08:58;101274.79;;;8.35;45.43
39954;BME280;25631;51.516;-0.470;2023-04-06T00:11:35;101272.67;;;8.43;45.67
39954;BME280;25631;51.516;-0.470;2023-04-06T00:14:12;101265.74;;;8.07;45.79
39954;BME280;25631;51.516;-0.470;2023-04-06T00:16:48;101260.46;;;8.31;45.63
39954;BME280;25631;51.516;-0.470;2023-04-06T00:19:25;101259.37;;;8.50;45.82
39954;BME280;25631;51.516;-0.470;2023-04-06T00:22:01;101257.64;;;8.39;45.60
39954;BME280;25631;51.516;-0.470;2023-04-06T00:24:37;101257.41;;;8.53;45.35
39954;BME280;25631;51.516;-0.470;2023-04-06T00:27:14;101254.38;;;8.72;45.60
39954;BME280;25631;51.516;-0.470;2023-04-06T00:29:50;101250.82;;;8.40;45.55
39954;BME280;25631;51.516;-0.470;2023-04-06T00:32:27;101248.56;;;8.27;45.83
39954;BME280;25631;51.516;-0.470;2023-04-06T00:35:04;101247.17;;;8.40;45.67
39954;BME280;25631;51.516;-0.470;2023-04-06T00:37:41;101244.10;;;8.12;45.78
39954;BME280;25631;51.516;-0.470;2023-04-06T00:40:17;101240.51;;;8.37;45.69
39954;BME280;25631;51.516;-0.470;2023-04-06T00:42:54;101236.53;;;8.51;45.74
39954;BME280;25631;51.516;-0.470;2023-04-06T00:45:31;101233.04;;;8.48;45.74
39954;BME280;25631;51.516;-0.470;2023-04-06T00:48:08;101231.09;;;8.41;45.75
39954;BME280;25631;51.516;-0.470;2023-04-06T00:50:45;101224.13;;;8.35;45.58
39954;BME280;25631;51.516;-0.470;2023-04-06T00:53:21;101221.89;;;8.28;45.90
39954;BME280;25631;51.516;-0.470;2023-04-06T00:55:58;101217.97;;;8.46;45.83
39954;BME280;25631;51.516;-0.470;2023-04-06T00:58:38;101214.83;;;8.08;45.84
39954;BME280;25631;51.516;-0.470;2023-04-06T01:01:14;101209.97;;;8.53;45.71
39954;BME280;25631;51.516;-0.470;2023-04-06T01:03:51;101206.14;;;8.61;45.63
39954;BME280;25631;51.516;-0.470;2023-04-06T01:06:28;101201.60;;;8.81;45.61
39954;BME280;25631;51.516;-0.470;2023-04-06T01:09:05;101200.28;;;8.68;45.53
39954;BME280;25631;51.516;-0.470;2023-04-06T01:11:41;101195.53;;;8.67;45.59
39954;BME280;25631;51.516;-0.470;2023-04-06T01:14:18;101194.00;;;8.82;45.68
39954;BME280;25631;51.516;-0.470;2023-04-06T01:16:57;101190.73;;;8.53;45.58
39954;BME280;25631;51.516;-0.470;2023-04-06T01:19:35;101186.47;;;8.62;45.65
39954;BME280;25631;51.516;-0.470;2023-04-06T01:22:15;101180.78;;;8.64;45.65
39954;BME280;25631;51.516;-0.470;2023-04-06T01:24:51;101176.55;;;8.55;45.79
39954;BME280;25631;51.516;-0.470;2023-04-06T01:27:28;101174.20;;;8.45;45.78
39954;BME280;25631;51.516;-0.470;2023-04-06T01:30:05;101171.60;;;8.83;45.76
39954;BME280;25631;51.516;-0.470;2023-04-06T01:32:42;101167.50;;;8.56;45.73
39954;BME280;25631;51.516;-0.470;2023-04-06T01:35:19;101163.50;;;8.71;45.80
39954;BME280;25631;51.516;-0.470;2023-04-06T01:37:56;101160.16;;;8.65;45.63
39954;BME280;25631;51.516;-0.470;2023-04-06T01:40:32;101155.04;;;8.85;45.85
39954;BME280;25631;51.516;-0.470;2023-04-06T01:43:08;101152.76;;;8.69;45.76
39954;BME280;25631;51.516;-0.470;2023-04-06T01:45:45;101149.57;;;8.78;45.94
39954;BME280;25631;51.516;-0.470;2023-04-06T01:48:21;101144.22;;;8.74;45.86
39954;BME280;25631;51.516;-0.470;2023-04-06T01:50:58;101143.54;;;8.61;45.95
39954;BME280;25631;51.516;-0.470;2023-04-06T01:53:34;101139.47;;;8.55;45.88
39954;BME280;25631;51.516;-0.470;2023-04-06T01:56:10;101138.26;;;8.49;46.00
39954;BME280;25631;51.516;-0.470;2023-04-06T01:58:47;101133.43;;;8.70;45.92
39954;BME280;25631;51.516;-0.470;2023-04-06T02:01:24;101133.81;;;8.78;46.08
39954;BME280;25631;51.516;-0.470;2023-04-06T02:04:00;101128.99;;;8.67;45.94
39954;BME280;25631;51.516;-0.470;2023-04-06T02:06:36;101124.10;;;8.62;46.12
39954;BME280;25631;51.516;-0.470;2023-04-06T02:09:13;101121.48;;;8.59;46.05
39954;BME280;25631;51.516;-0.470;2023-04-06T02:11:50;101117.21;;;8.50;46.15
39954;BME280;25631;51.516;-0.470;2023-04-06T02:14:26;101116.69;;;8.60;46.19
39954;BME280;25631;51.516;-0.470;2023-04-06T02:17:03;101113.12;;;8.84;46.25
39954;BME280;25631;51.516;-0.470;2023-04-06T02:19:40;101112.91;;;8.64;46.07
39954;BME280;25631;51.516;-0.470;2023-04-06T02:22:16;101108.88;;;8.80;46.32
39954;BME280;25631;51.516;-0.470;2023-04-06T02:24:52;101103.87;;;8.64;46.25
39954;BME280;25631;51.516;-0.470;2023-04-06T02:27:29;101098.84;;;8.46;46.11
39954;BME280;25631;51.516;-0.470;2023-04-06T02:30:06;101093.52;;;8.66;46.20
39954;BME280;25631;51.516;-0.470;2023-04-06T02:32:43;101088.02;;;8.67;46.30
39954;BME280;25631;51.516;-0.470;2023-04-06T02:35:19;101085.67;;;8.50;46.38
39954;BME280;25631;51.516;-0.470;2023-04-06T02:37:56;101083.13;;;8.63;46.61
39954;BME280;25631;51.516;-0.470;2023-04-06T02:40:32;101082.36;;;8.60;46.51
39954;BME280;25631;51.516;-0.470;2023-04-06T02:43:09;101075.65;;;8.18;46.79
39954;BME280;25631;51.516;-0.470;2023-04-06T02:45:46;101069.83;;;8.73;46.55
39954;BME280;25631;51.516;-0.470;2023-04-06T02:48:22;101061.62;;;8.54;46.47
39954;BME280;25631;51.516;-0.470;2023-04-06T02:50:59;101061.85;;;8.57;46.53
39954;BME280;25631;51.516;-0.470;2023-04-06T02:53:35;101056.88;;;8.67;46.45
39954;BME280;25631;51.516;-0.470;2023-04-06T02:56:12;101055.91;;;8.84;46.44
39954;BME280;25631;51.516;-0.470;2023-04-06T02:58:48;101052.80;;;8.60;46.36
39954;BME280;25631;51.516;-0.470;2023-04-06T03:01:25;101054.08;;;8.96;46.34
39954;BME280;25631;51.516;-0.470;2023-04-06T03:04:02;101051.08;;;8.62;46.29
39954;BME280;25631;51.516;-0.470;2023-04-06T03:06:39;101050.11;;;8.74;46.26
39954;BME280;25631;51.516;-0.470;2023-04-06T03:09:15;101053.31;;;8.82;46.17
39954;BME280;25631;51.516;-0.470;2023-04-06T03:11:52;101055.71;;;8.68;46.35
39954;BME280;25631;51.516;-0.470;2023-04-06T03:14:28;101050.45;;;8.78;46.36
39954;BME280;25631;51.516;-0.470;2023-04-06T03:17:05;101048.29;;;8.56;46.47
39954;BME280;25631;51.516;-0.470;2023-04-06T03:19:41;101047.44;;;8.69;46.49
39954;BME280;25631;51.516;-0.470;2023-04-06T03:22:19;101049.44;;;8.60;46.52
39954;BME280;25631;51.516;-0.470;2023-04-06T03:24:55;101044.60;;;8.80;46.51
39954;BME280;25631;51.516;-0.470;2023-04-06T03:27:32;101040.18;;;8.63;46.50
39954;BME280;25631;51.516;-0.470;2023-04-06T03:30:09;101036.21;;;8.95;46.49
39954;BME280;25631;51.516;-0.470;2023-04-06T03:32:46;101032.84;;;8.66;46.47
39954;BME280;25631;51.516;-0.470;2023-04-06T03:35:23;101031.67;;;8.59;46.35
39954;BME280;25631;51.516;-0.470;2023-04-06T03:38:00;101026.02;;;8.80;46.28
39954;BME280;25631;51.516;-0.470;2023-04-06T03:40:36;101024.55;;;9.07;46.34
39954;BME280;25631;51.516;-0.470;2023-04-06T03:43:13;101023.10;;;8.73;46.53
39954;BME280;25631;51.516;-0.470;2023-04-06T03:45:49;101022.62;;;8.74;46.73
39954;BME280;25631;51.516;-0.470;2023-04-06T03:48:26;101017.43;;;8.71;46.85
39954;BME280;25631;51.516;-0.470;2023-04-06T03:51:03;101014.51;;;8.31;47.23
39954;BME280;25631;51.516;-0.470;2023-04-06T03:53:39;101013.62;;;8.39;47.27
39954;BME280;25631;51.516;-0.470;2023-04-06T03:56:15;101013.51;;;8.66;47.29
39954;BME280;25631;51.516;-0.470;2023-04-06T03:58:52;101005.55;;;8.53;47.32
39954;BME280;25631;51.516;-0.470;2023-04-06T04:01:28;101003.60;;;8.39;47.46
39954;BME280;25631;51.516;-0.470;2023-04-06T04:04:05;101000.19;;;8.67;47.35
39954;BME280;25631;51.516;-0.470;2023-04-06T04:06:41;101002.23;;;8.30;47.49
39954;BME280;25631;51.516;-0.470;2023-04-06T04:09:18;100999.85;;;8.60;47.65
39954;BME280;25631;51.516;-0.470;2023-04-06T04:11:54;100998.75;;;8.15;47.76
39954;BME280;25631;51.516;-0.470;2023-04-06T04:14:31;100992.57;;;8.45;47.81
39954;BME280;25631;51.516;-0.470;2023-04-06T04:17:07;100994.21;;;8.30;47.88
39954;BME280;25631;51.516;-0.470;2023-04-06T04:19:44;100993.11;;;8.54;47.72
39954;BME280;25631;51.516;-0.470;2023-04-06T04:22:20;100996.89;;;8.05;47.96
39954;BME280;25631;51.516;-0.470;2023-04-06T04:24:57;100989.73;;;8.50;47.73
39954;BME280;25631;51.516;-0.470;2023-04-06T04:27:34;100991.07;;;8.65;47.72
39954;BME280;25631;51.516;-0.470;2023-04-06T04:30:11;100988.90;;;8.23;47.74
39954;BME280;25631;51.516;-0.470;2023-04-06T04:32:47;100995.93;;;8.50;47.59
39954;BME280;25631;51.516;-0.470;2023-04-06T04:35:24;100994.75;;;8.43;47.50
39954;BME280;25631;51.516;-0.470;2023-04-06T04:38:01;100993.49;;;8.90;47.45
39954;BME280;25631;51.516;-0.470;2023-04-06T04:40:37;100993.63;;;8.70;47.58
39954;BME280;25631;51.516;-0.470;2023-04-06T04:43:14;100994.36;;;8.55;47.54
39954;BME280;25631;51.516;-0.470;2023-04-06T04:45:50;100996.17;;;8.56;47.64
39954;BME280;25631;51.516;-0.470;2023-04-06T04:48:26;100994.74;;;8.80;47.60
39954;BME280;25631;51.516;-0.470;2023-04-06T04:51:04;100993.28;;;8.23;47.81
39954;BME280;25631;51.516;-0.470;2023-04-06T04:53:41;100992.77;;;8.51;47.61
39954;BME280;25631;51.516;-0.470;2023-04-06T04:56:17;100985.70;;;8.71;47.54
39954;BME280;25631;51.516;-0.470;2023-04-06T04:58:54;100983.13;;;8.58;47.51
39954;BME280;25631;51.516;-0.470;2023-04-06T05:01:31;100980.59;;;8.73;47.60
39954;BME280;25631;51.516;-0.470;2023-04-06T05:04:07;100982.27;;;8.67;47.58
39954;BME280;25631;51.516;-0.470;2023-04-06T05:06:44;100975.93;;;8.95;47.54
39954;BME280;25631;51.516;-0.470;2023-04-06T05:09:20;100974.66;;;8.58;47.52
39954;BME280;25631;51.516;-0.470;2023-04-06T05:11:57;100973.52;;;8.66;47.30
39954;BME280;25631;51.516;-0.470;2023-04-06T05:14:34;100975.46;;;9.08;47.34
39954;BME280;25631;51.516;-0.470;2023-04-06T05:17:10;100973.72;;;8.97;47.38
39954;BME280;25631;51.516;-0.470;2023-04-06T05:19:47;100969.27;;;8.75;47.58
39954;BME280;25631;51.516;-0.470;2023-04-06T05:22:24;100974.06;;;8.89;47.51
39954;BME280;25631;51.516;-0.470;2023-04-06T05:25:01;100975.78;;;9.10;47.47
39954;BME280;25631;51.516;-0.470;2023-04-06T05:27:38;100977.75;;;8.99;47.22
39954;BME280;25631;51.516;-0.470;2023-04-06T05:30:15;100971.91;;;8.86;47.46
39954;BME280;25631;51.516;-0.470;2023-04-06T05:32:52;100969.42;;;8.91;47.29
39954;BME280;25631;51.516;-0.470;2023-04-06T05:35:28;100970.02;;;8.69;47.31
39954;BME280;25631;51.516;-0.470;2023-04-06T05:38:08;100975.56;;;9.05;47.24
39954;BME280;25631;51.516;-0.470;2023-04-06T05:40:45;100976.93;;;8.73;47.52
39954;BME280;25631;51.516;-0.470;2023-04-06T05:43:21;100976.96;;;8.61;47.68
39954;BME280;25631;51.516;-0.470;2023-04-06T05:45:58;100970.25;;;8.81;47.46
39954;BME280;25631;51.516;-0.470;2023-04-06T05:48:35;100963.66;;;9.13;47.40
39954;BME280;25631;51.516;-0.470;2023-04-06T05:51:11;100955.00;;;8.87;47.37
39954;BME280;25631;51.516;-0.470;2023-04-06T05:53:47;100962.75;;;9.32;47.05
39954;BME280;25631;51.516;-0.470;2023-04-06T05:56:24;100963.12;;;9.35;47.06
39954;BME280;25631;51.516;-0.470;2023-04-06T05:59:00;100960.44;;;9.30;46.98
39954;BME280;25631;51.516;-0.470;2023-04-06T06:01:37;100970.51;;;9.42;46.95
39954;BME280;25631;51.516;-0.470;2023-04-06T06:04:13;100973.25;;;8.82;47.03
39954;BME280;25631;51.516;-0.470;2023-04-06T06:06:50;100975.60;;;9.22;47.16
39954;BME280;25631;51.516;-0.470;2023-04-06T06:09:26;100975.45;;;9.39;47.01
39954;BME280;25631;51.516;-0.470;2023-04-06T06:12:03;100972.39;;;9.40;47.00
39954;BME280;25631;51.516;-0.470;2023-04-06T06:14:39;100972.21;;;9.26;47.14
39954;BME280;25631;51.516;-0.470;2023-04-06T06:17:16;100974.76;;;9.28;47.00
39954;BME280;25631;51.516;-0.470;2023-04-06T06:19:52;100975.20;;;9.40;46.92
39954;BME280;25631;51.516;-0.470;2023-04-06T06:22:29;100972.58;;;9.23;47.00
39954;BME280;25631;51.516;-0.470;2023-04-06T06:25:06;100975.42;;;9.34;46.95
39954;BME280;25631;51.516;-0.470;2023-04-06T06:27:43;100975.62;;;9.52;47.00
39954;BME280;25631;51.516;-0.470;2023-04-06T06:30:19;100971.87;;;9.14;46.88
39954;BME280;25631;51.516;-0.470;2023-04-06T06:32:56;100966.00;;;9.28;46.96
39954;BME280;25631;51.516;-0.470;2023-04-06T06:35:32;100950.88;;;9.23;46.75
39954;BME280;25631;51.516;-0.470;2023-04-06T06:38:09;100952.62;;;9.22;46.69
39954;BME280;25631;51.516;-0.470;2023-04-06T06:40:46;100947.85;;;9.79;46.65
39954;BME280;25631;51.516;-0.470;2023-04-06T06:43:22;100930.05;;;9.28;46.67
39954;BME280;25631;51.516;-0.470;2023-04-06T06:45:59;100934.71;;;9.34;46.72
39954;BME280;25631;51.516;-0.470;2023-04-06T06:48:35;100951.32;;;9.34;46.78
39954;BME280;25631;51.516;-0.470;2023-04-06T06:51:12;100960.99;;;9.33;46.73
39954;BME280;25631;51.516;-0.470;2023-04-06T06:53:48;100967.65;;;9.49;46.60
39954;BME280;25631;51.516;-0.470;2023-04-06T06:56:25;100972.39;;;9.25;46.79
39954;BME280;25631;51.516;-0.470;2023-04-06T06:59:01;100975.44;;;9.23;46.39
39954;BME280;25631;51.516;-0.470;2023-04-06T07:01:38;100971.76;;;9.28;46.24
39954;BME280;25631;51.516;-0.470;2023-04-06T07:04:14;100967.68;;;9.51;46.26
39954;BME280;25631;51.516;-0.470;2023-04-06T07:06:51;100978.00;;;9.51;46.13
39954;BME280;25631;51.516;-0.470;2023-04-06T07:09:28;100977.53;;;9.57;46.00
39954;BME280;25631;51.516;-0.470;2023-04-06T07:12:04;100981.83;;;9.64;45.80
39954;BME280;25631;51.516;-0.470;2023-04-06T07:14:41;100976.73;;;9.66;45.54
39954;BME280;25631;51.516;-0.470;2023-04-06T07:17:17;100975.74;;;9.79;45.50
39954;BME280;25631;51.516;-0.470;2023-04-06T07:19:54;100984.03;;;9.92;45.31
39954;BME280;25631;51.516;-0.470;2023-04-06T07:22:30;100979.73;;;9.73;45.24
39954;BME280;25631;51.516;-0.470;2023-04-06T07:25:07;100977.07;;;9.68;45.22
39954;BME280;25631;51.516;-0.470;2023-04-06T07:27:44;100976.88;;;9.73;44.86
39954;BME280;25631;51.516;-0.470;2023-04-06T07:30:21;100985.25;;;9.83;44.69
39954;BME280;25631;51.516;-0.470;2023-04-06T07:32:58;100984.74;;;9.89;44.58
39954;BME280;25631;51.516;-0.470;2023-04-06T07:35:35;100987.78;;;9.69;44.75
39954;BME280;25631;51.516;-0.470;2023-04-06T07:38:12;100994.42;;;9.53;44.88
39954;BME280;25631;51.516;-0.470;2023-04-06T07:40:48;100993.79;;;9.14;44.96
39954;BME280;25631;51.516;-0.470;2023-04-06T07:43:24;100990.79;;;9.57;44.61
39954;BME280;25631;51.516;-0.470;2023-04-06T07:46:01;100997.67;;;9.55;44.68
39954;BME280;25631;51.516;-0.470;2023-04-06T07:48:37;100995.88;;;9.35;44.68
39954;BME280;25631;51.516;-0.470;2023-04-06T07:51:13;100996.84;;;9.22;44.82
39954;BME280;25631;51.516;-0.470;2023-04-06T07:53:50;100998.20;;;9.22;44.67
39954;BME280;25631;51.516;-0.470;2023-04-06T07:56:27;101000.06;;;9.44;44.57
39954;BME280;25631;51.516;-0.470;2023-04-06T07:59:03;100999.63;;;9.27;44.50
39954;BME280;25631;51.516;-0.470;2023-04-06T08:01:40;101003.12;;;9.66;44.41
39954;BME280;25631;51.516;-0.470;2023-04-06T08:04:16;101001.23;;;9.23;44.29
39954;BME280;25631;51.516;-0.470;2023-04-06T08:06:53;101001.19;;;9.21;44.32
39954;BME280;25631;51.516;-0.470;2023-04-06T08:09:29;101002.01;;;9.24;44.39
39954;BME280;25631;51.516;-0.470;2023-04-06T08:12:06;101002.63;;;9.26;44.22
39954;BME280;25631;51.516;-0.470;2023-04-06T08:14:42;101001.46;;;9.00;44.31
39954;BME280;25631;51.516;-0.470;2023-04-06T08:17:19;100993.75;;;9.45;43.90
39954;BME280;25631;51.516;-0.470;2023-04-06T08:19:56;100991.08;;;9.58;43.81
39954;BME280;25631;51.516;-0.470;2023-04-06T08:22:32;100987.55;;;9.56;43.60
39954;BME280;25631;51.516;-0.470;2023-04-06T08:25:09;100987.89;;;9.66;43.86
39954;BME280;25631;51.516;-0.470;2023-04-06T08:27:45;100993.26;;;10.03;43.46
39954;BME280;25631;51.516;-0.470;2023-04-06T08:30:22;100995.27;;;10.06;43.20
39954;BME280;25631;51.516;-0.470;2023-04-06T08:32:59;100994.46;;;9.99;42.84
39954;BME280;25631;51.516;-0.470;2023-04-06T08:35:35;100994.96;;;10.02;42.82
39954;BME280;25631;51.516;-0.470;2023-04-06T08:38:12;100990.74;;;10.44;43.05
39954;BME280;25631;51.516;-0.470;2023-04-06T08:40:48;100994.21;;;10.38;42.95
39954;BME280;25631;51.516;-0.470;2023-04-06T08:43:27;100997.10;;;10.38;42.69
39954;BME280;25631;51.516;-0.470;2023-04-06T08:46:04;101000.81;;;10.36;42.53
39954;BME280;25631;51.516;-0.470;2023-04-06T08:48:43;100995.06;;;10.38;42.25
39954;BME280;25631;51.516;-0.470;2023-04-06T08:51:19;101001.48;;;10.64;42.21
39954;BME280;25631;51.516;-0.470;2023-04-06T08:53:59;101000.60;;;10.33;42.26
39954;BME280;25631;51.516;-0.470;2023-04-06T08:56:38;101003.25;;;10.42;42.19
39954;BME280;25631;51.516;-0.470;2023-04-06T08:59:15;101000.59;;;10.50;42.17
39954;BME280;25631;51.516;-0.470;2023-04-06T09:01:53;101000.61;;;10.40;42.22
39954;BME280;25631;51.516;-0.470;2023-04-06T09:04:32;101001.01;;;10.60;42.20
39954;BME280;25631;51.516;-0.470;2023-04-06T09:07:09;101008.16;;;10.67;42.36
39954;BME280;25631;51.516;-0.470;2023-04-06T09:09:45;101010.50;;;10.82;42.39
39954;BME280;25631;51.516;-0.470;2023-04-06T09:12:23;101023.14;;;10.49;42.21
39954;BME280;25631;51.516;-0.470;2023-04-06T09:15:01;101021.25;;;11.03;42.05
39954;BME280;25631;51.516;-0.470;2023-04-06T09:17:38;101022.02;;;10.72;41.80
39954;BME280;25631;51.516;-0.470;2023-04-06T09:20:14;101022.81;;;10.82;41.57
39954;BME280;25631;51.516;-0.470;2023-04-06T09:22:51;101017.06;;;10.70;41.51
39954;BME280;25631;51.516;-0.470;2023-04-06T09:25:27;101013.18;;;10.85;40.85
39954;BME280;25631;51.516;-0.470;2023-04-06T09:28:04;101012.10;;;11.06;40.76
39954;BME280;25631;51.516;-0.470;2023-04-06T09:30:48;101016.19;;;10.75;40.42
39954;BME280;25631;51.516;-0.470;2023-04-06T09:33:24;101020.81;;;11.02;40.43
39954;BME280;25631;51.516;-0.470;2023-04-06T09:36:01;101019.96;;;10.80;40.15
39954;BME280;25631;51.516;-0.470;2023-04-06T09:38:38;101017.17;;;10.87;39.79
39954;BME280;25631;51.516;-0.470;2023-04-06T09:41:21;101016.15;;;10.99;38.92
39954;BME280;25631;51.516;-0.470;2023-04-06T09:44:07;101017.57;;;11.02;39.02
39954;BME280;25631;51.516;-0.470;2023-04-06T09:46:45;101020.98;;;10.79;39.19
39954;BME280;25631;51.516;-0.470;2023-04-06T09:49:23;101015.75;;;11.17;38.93
39954;BME280;25631;51.516;-0.470;2023-04-06T09:52:02;101025.29;;;11.41;38.87
39954;BME280;25631;51.516;-0.470;2023-04-06T09:54:39;101032.09;;;11.34;38.83
39954;BME280;25631;51.516;-0.470;2023-04-06T09:57:24;101030.72;;;11.45;39.20
39954;BME280;25631;51.516;-0.470;2023-04-06T10:00:04;101030.51;;;11.59;39.34
39954;BME280;25631;51.516;-0.470;2023-04-06T10:02:45;101033.44;;;11.56;38.91
39954;BME280;25631;51.516;-0.470;2023-04-06T10:05:32;101034.23;;;11.46;38.92
39954;BME280;25631;51.516;-0.470;2023-04-06T10:08:11;101037.54;;;11.50;38.56
39954;BME280;25631;51.516;-0.470;2023-04-06T10:10:48;101039.50;;;11.74;38.51
39954;BME280;25631;51.516;-0.470;2023-04-06T10:13:27;101046.04;;;11.62;38.54
39954;BME280;25631;51.516;-0.470;2023-04-06T10:16:04;101045.73;;;11.78;38.65
39954;BME280;25631;51.516;-0.470;2023-04-06T10:18:46;101046.33;;;11.83;38.45
39954;BME280;25631;51.516;-0.470;2023-04-06T10:21:25;101046.42;;;11.26;38.21
39954;BME280;25631;51.516;-0.470;2023-04-06T10:24:06;101049.87;;;11.56;38.16
39954;BME280;25631;51.516;-0.470;2023-04-06T10:26:43;101053.47;;;11.61;38.10
39954;BME280;25631;51.516;-0.470;2023-04-06T10:29:21;101053.87;;;11.55;38.10
39954;BME280;25631;51.516;-0.470;2023-04-06T10:31:57;101047.46;;;11.35;38.23
39954;BME280;25631;51.516;-0.470;2023-04-06T10:34:35;101049.37;;;11.81;38.26
39954;BME280;25631;51.516;-0.470;2023-04-06T10:37:13;101054.77;;;12.03;38.30
39954;BME280;25631;51.516;-0.470;2023-04-06T10:39:52;101057.96;;;12.21;37.89
39954;BME280;25631;51.516;-0.470;2023-04-06T10:42:36;101055.88;;;12.04;37.51
39954;BME280;25631;51.516;-0.470;2023-04-06T10:45:23;101057.65;;;12.29;37.43
39954;BME280;25631;51.516;-0.470;2023-04-06T10:48:00;101056.76;;;12.26;37.07
39954;BME280;25631;51.516;-0.470;2023-04-06T10:50:37;101060.83;;;12.09;36.15
39954;BME280;25631;51.516;-0.470;2023-04-06T10:53:21;101061.40;;;11.98;36.54
39954;BME280;25631;51.516;-0.470;2023-04-06T10:55:58;101058.45;;;11.88;36.58
39954;BME280;25631;51.516;-0.470;2023-04-06T10:58:35;101054.66;;;12.01;36.26
39954;BME280;25631;51.516;-0.470;2023-04-06T11:01:12;101062.21;;;12.02;36.24
39954;BME280;25631;51.516;-0.470;2023-04-06T11:03:52;101068.26;;;12.21;36.17
39954;BME280;25631;51.516;-0.470;2023-04-06T11:06:30;101069.55;;;12.08;36.92
39954;BME280;25631;51.516;-0.470;2023-04-06T11:09:08;101072.45;;;12.00;37.18
39954;BME280;25631;51.516;-0.470;2023-04-06T11:11:44;101074.59;;;11.88;37.13
39954;BME280;25631;51.516;-0.470;2023-04-06T11:14:21;101078.21;;;11.70;37.42
39954;BME280;25631;51.516;-0.470;2023-04-06T11:16:58;101075.43;;;12.20;37.34
39954;BME280;25631;51.516;-0.470;2023-04-06T11:19:35;101077.02;;;11.36;37.16
39954;BME280;25631;51.516;-0.470;2023-04-06T11:22:12;101073.25;;;11.88;36.62
39954;BME280;25631;51.516;-0.470;2023-04-06T11:24:48;101076.45;;;11.64;35.82
39954;BME280;25631;51.516;-0.470;2023-04-06T11:27:25;101084.33;;;11.81;35.43
39954;BME280;25631;51.516;-0.470;2023-04-06T11:30:02;101082.76;;;12.14;35.44
39954;BME280;25631;51.516;-0.470;2023-04-06T11:32:40;101084.17;;;11.83;35.30
39954;BME280;25631;51.516;-0.470;2023-04-06T11:35:20;101086.20;;;11.62;34.23
39954;BME280;25631;51.516;-0.470;2023-04-06T11:37:57;101082.08;;;11.95;34.03
39954;BME280;25631;51.516;-0.470;2023-04-06T11:40:33;101086.45;;;11.93;33.70
39954;BME280;25631;51.516;-0.470;2023-04-06T11:43:11;101081.12;;;12.09;33.17
39954;BME280;25631;51.516;-0.470;2023-04-06T11:45:48;101082.71;;;11.99;32.58
39954;BME280;25631;51.516;-0.470;2023-04-06T11:48:24;101090.45;;;12.11;32.61
39954;BME280;25631;51.516;-0.470;2023-04-06T11:51:01;101092.17;;;11.84;33.05
39954;BME280;25631;51.516;-0.470;2023-04-06T11:53:44;101090.23;;;12.30;32.75
39954;BME280;25631;51.516;-0.470;2023-04-06T11:56:25;101088.52;;;12.25;32.68
39954;BME280;25631;51.516;-0.470;2023-04-06T11:59:02;101091.11;;;12.51;32.63
39954;BME280;25631;51.516;-0.470;2023-04-06T12:01:45;101089.37;;;12.62;32.68
39954;BME280;25631;51.516;-0.470;2023-04-06T12:04:21;101085.10;;;12.73;32.82
39954;BME280;25631;51.516;-0.470;2023-04-06T12:06:58;101085.06;;;12.83;32.97
39954;BME280;25631;51.516;-0.470;2023-04-06T12:09:35;101084.93;;;13.07;32.78
39954;BME280;25631;51.516;-0.470;2023-04-06T12:12:11;101081.75;;;13.27;32.73
39954;BME280;25631;51.516;-0.470;2023-04-06T12:14:48;101078.51;;;13.17;32.30
39954;BME280;25631;51.516;-0.470;2023-04-06T12:17:25;101086.21;;;13.24;32.22
39954;BME280;25631;51.516;-0.470;2023-04-06T12:20:01;101076.36;;;13.07;32.08
39954;BME280;25631;51.516;-0.470;2023-04-06T12:22:38;101076.67;;;13.32;32.03
39954;BME280;25631;51.516;-0.470;2023-04-06T12:25:14;101081.59;;;13.24;31.63
39954;BME280;25631;51.516;-0.470;2023-04-06T12:27:51;101078.24;;;13.26;32.44
39954;BME280;25631;51.516;-0.470;2023-04-06T12:30:27;101087.03;;;13.38;32.58
39954;BME280;25631;51.516;-0.470;2023-04-06T12:33:04;101080.13;;;13.47;32.15
39954;BME280;25631;51.516;-0.470;2023-04-06T12:35:40;101076.50;;;13.68;32.19
39954;BME280;25631;51.516;-0.470;2023-04-06T12:38:18;101076.23;;;13.85;31.26
39954;BME280;25631;51.516;-0.470;2023-04-06T12:40:54;101066.91;;;14.10;31.35
39954;BME280;25631;51.516;-0.470;2023-04-06T12:43:31;101064.99;;;14.24;31.84
39954;BME280;25631;51.516;-0.470;2023-04-06T12:46:07;101065.11;;;14.38;31.12
39954;BME280;25631;51.516;-0.470;2023-04-06T12:48:44;101068.89;;;14.44;30.13
39954;BME280;25631;51.516;-0.470;2023-04-06T12:51:21;101078.32;;;14.39;29.25
39954;BME280;25631;51.516;-0.470;2023-04-06T12:53:58;101073.65;;;14.53;28.27
39954;BME280;25631;51.516;-0.470;2023-04-06T12:56:34;101065.56;;;13.86;27.93
39954;BME280;25631;51.516;-0.470;2023-04-06T12:59:11;101074.99;;;14.36;27.84
39954;BME280;25631;51.516;-0.470;2023-04-06T13:01:47;101075.16;;;14.34;27.84
39954;BME280;25631;51.516;-0.470;2023-04-06T13:04:24;101073.21;;;14.16;27.72
39954;BME280;25631;51.516;-0.470;2023-04-06T13:07:00;101072.49;;;14.45;27.51
39954;BME280;25631;51.516;-0.470;2023-04-06T13:09:36;101070.37;;;14.72;28.05
39954;BME280;25631;51.516;-0.470;2023-04-06T13:12:13;101074.85;;;14.69;27.89
39954;BME280;25631;51.516;-0.470;2023-04-06T13:14:49;101075.61;;;14.42;28.25
39954;BME280;25631;51.516;-0.470;2023-04-06T13:17:27;101079.90;;;14.30;28.53
39954;BME280;25631;51.516;-0.470;2023-04-06T13:20:04;101078.16;;;14.78;28.59
39954;BME280;25631;51.516;-0.470;2023-04-06T13:22:41;101071.69;;;14.57;29.01
39954;BME280;25631;51.516;-0.470;2023-04-06T13:25:18;101071.86;;;14.53;29.12
39954;BME280;25631;51.516;-0.470;2023-04-06T13:27:55;101073.73;;;14.16;28.77
39954;BME280;25631;51.516;-0.470;2023-04-06T13:30:31;101073.06;;;14.47;28.87
39954;BME280;25631;51.516;-0.470;2023-04-06T13:33:08;101080.09;;;14.19;28.05
39954;BME280;25631;51.516;-0.470;2023-04-06T13:35:44;101088.82;;;14.15;27.95